Time;durP1;ratioP1;P1;durP2;ratioP2;P2;SDS_P1;SDS_P2;PMS_P1;PMS_P2;Temp;Humidity;BMP_temperature;BMP_pressure;BME280_temperature;BME280_humidity;BME280_pressure;Samples;Min_cycle;Max_cycle;Signal;HPM_P1;HPM_P2
2023/06/13 00:00:42;;;;;;;7.82;1.95;;;;;;;19.31;81.32;99450.31;4977166;28;20254;-78
2023/06/13 00:03:15;;;;;;;6.18;1.70;;;;;;;19.25;81.06;99440.72;4967607;28;20244;-79
2023/06/13 00:05:46;;;;;;;31.27;7.68;;;;;;;19.19;80.45;99422.22;4957124;28;20237;-78
2023/06/13 00:08:21;;;;;;;7.28;1.80;;;;;;;19.14;80.88;99426.91;4971460;28;20603;-78
2023/06/13 00:10:48;;;;;;;5.22;1.45;;;;;;;19.16;81.74;99433.06;4974099;28;20238;-78
2023/06/13 00:13:15;;;;;;;13.57;3.63;;;;;;;19.19;79.96;99404.34;4975107;28;20235;-78
2023/06/13 00:15:56;;;;;;;8.07;2.13;;;;;;;19.23;79.04;99405.06;4966569;28;20375;-79
2023/06/13 00:18:23;;;;;;;19.40;5.35;;;;;;;19.19;79.85;99401.66;4967384;28;20235;-78
2023/06/13 00:20:54;;;;;;;7.50;1.92;;;;;;;19.25;78.75;99389.81;4952435;28;20241;-78
2023/06/13 00:23:22;;;;;;;19.02;4.93;;;;;;;19.18;77.65;99365.06;4951961;28;20231;-78
2023/06/13 00:25:49;;;;;;;8.38;2.10;;;;;;;19.15;78.59;99375.03;4967940;28;20279;-78
2023/06/13 00:28:16;;;;;;;13.05;3.70;;;;;;;19.20;79.01;99391.81;4963519;28;20264;-79
2023/06/13 00:30:45;;;;;;;8.65;2.13;;;;;;;19.00;80.33;99381.94;4974210;28;20351;-78
2023/06/13 00:33:16;;;;;;;6.40;1.75;;;;;;;18.99;81.12;99388.22;4953783;28;20236;-79
2023/06/13 00:35:44;;;;;;;5.47;1.55;;;;;;;18.92;81.87;99410.84;4974056;28;20264;-78
2023/06/13 00:38:12;;;;;;;7.18;1.83;;;;;;;18.92;81.42;99389.41;4974388;28;20316;-78
2023/06/13 00:40:39;;;;;;;5.95;1.60;;;;;;;18.95;80.70;99378.56;4967354;28;20264;-78
2023/06/13 00:43:07;;;;;;;10.88;2.72;;;;;;;18.82;81.03;99369.31;4967212;28;20719;-78
2023/06/13 00:45:34;;;;;;;6.63;1.83;;;;;;;18.78;81.12;99376.59;4970456;28;20232;-78
2023/06/13 00:48:05;;;;;;;8.50;2.17;;;;;;;18.80;80.73;99379.22;4988053;28;20240;-78
2023/06/13 00:50:35;;;;;;;8.23;2.28;;;;;;;18.81;82.45;99397.91;4952694;28;20544;-78
2023/06/13 00:53:09;;;;;;;9.27;2.35;;;;;;;18.70;81.89;99384.06;4970766;28;20232;-78
2023/06/13 00:55:37;;;;;;;9.85;2.63;;;;;;;18.53;84.14;99395.44;4965030;28;20235;-79
2023/06/13 00:58:06;;;;;;;4.60;1.20;;;;;;;18.58;81.44;99359.56;4976123;28;20224;-78
2023/06/13 01:00:34;;;;;;;14.20;3.45;;;;;;;18.55;81.10;99358.75;4966357;28;20256;-78
2023/06/13 01:03:07;;;;;;;7.72;2.00;;;;;;;18.40;84.17;99394.16;4968893;28;20280;-78
2023/06/13 01:05:35;;;;;;;6.35;1.75;;;;;;;18.32;85.94;99396.28;4962564;28;20252;-79
2023/06/13 01:08:07;;;;;;;5.68;1.50;;;;;;;18.25;88.21;99428.69;4965293;28;20311;-79
2023/06/13 01:10:34;;;;;;;7.57;1.92;;;;;;;18.21;90.18;99452.88;4968173;28;20614;-79
2023/06/13 01:13:08;;;;;;;9.23;2.22;;;;;;;18.18;93.48;99487.75;4957752;28;20236;-79
2023/06/13 01:15:40;;;;;;;8.68;2.25;;;;;;;18.04;93.03;99467.78;4960739;28;20366;-78
2023/06/13 01:18:08;;;;;;;6.95;2.08;;;;;;;17.79;93.96;99471.34;4970068;28;20224;-78
2023/06/13 01:20:37;;;;;;;6.57;1.98;;;;;;;17.60;95.09;99471.09;4957715;28;20240;-78
2023/06/13 01:23:15;;;;;;;5.50;1.65;;;;;;;17.79;95.18;99494.56;4974254;28;20320;-78
2023/06/13 01:26:07;;;;;;;11.93;3.10;;;;;;;17.83;92.56;99473.00;4984286;28;20235;-78
2023/06/13 01:28:36;;;;;;;12.10;3.05;;;;;;;17.64;91.92;99445.13;4957390;28;20301;-78
2023/06/13 01:31:06;;;;;;;13.93;3.60;;;;;;;17.64;94.20;99466.53;4976946;28;20236;-79
2023/06/13 01:33:34;;;;;;;13.90;3.55;;;;;;;17.57;92.26;99451.63;4971409;28;20294;-78
2023/06/13 01:36:01;;;;;;;10.82;2.97;;;;;;;17.50;95.00;99484.84;4970988;28;20224;-79
2023/06/13 01:38:28;;;;;;;26.27;6.80;;;;;;;17.37;97.72;99510.22;4971215;28;20228;-79
2023/06/13 01:40:54;;;;;;;12.63;3.33;;;;;;;17.25;99.34;99524.88;4975405;28;20596;-79
2023/06/13 01:43:21;;;;;;;20.33;5.80;;;;;;;17.30;96.94;99517.59;4966152;28;20262;-79
2023/06/13 01:45:49;;;;;;;13.23;3.45;;;;;;;17.35;97.47;99546.81;4964717;28;20225;-80
2023/06/13 01:48:18;;;;;;;14.30;3.83;;;;;;;17.47;94.93;99535.72;4968167;28;20232;-79
2023/06/13 01:51:08;;;;;;;16.83;4.35;;;;;;;17.31;98.29;99551.41;4982153;28;20236;-79
2023/06/13 01:53:40;;;;;;;22.33;5.28;;;;;;;16.88;100.00;99621.28;4966628;28;20241;-79
2023/06/13 01:56:09;;;;;;;9.07;2.47;;;;;;;17.04;99.97;99579.00;4974183;28;20256;-78
2023/06/13 01:58:44;;;;;;;12.82;3.25;;;;;;;17.28;97.43;99584.44;4967218;28;20236;-78
2023/06/13 02:01:11;;;;;;;10.18;2.70;;;;;;;16.79;100.00;99637.56;4973738;28;20227;-79
2023/06/13 02:03:37;;;;;;;11.02;3.03;;;;;;;16.83;100.00;99636.56;4970213;28;20318;-79
2023/06/13 02:06:04;;;;;;;13.52;3.38;;;;;;;16.89;100.00;99684.44;4974085;28;20240;-79
2023/06/13 02:08:31;;;;;;;42.85;11.00;;;;;;;16.73;100.00;99681.34;4964840;28;20244;-79
2023/06/13 02:10:58;;;;;;;11.98;3.25;;;;;;;16.87;100.00;99647.09;4969184;28;20266;-79
2023/06/13 02:13:25;;;;;;;30.63;7.85;;;;;;;17.04;99.82;99619.94;4965612;28;20236;-79
2023/06/13 02:15:51;;;;;;;14.73;3.92;;;;;;;17.00;99.57;99618.28;4973082;28;20235;-79
2023/06/13 02:18:18;;;;;;;32.47;8.18;;;;;;;17.04;99.20;99613.72;4970445;28;20229;-79
2023/06/13 02:20:45;;;;;;;16.77;4.78;;;;;;;16.91;99.40;99608.75;4974530;28;20243;-79
2023/06/13 02:23:12;;;;;;;18.98;4.80;;;;;;;16.72;100.00;99628.84;4969322;28;20229;-78
2023/06/13 02:25:40;;;;;;;11.43;2.92;;;;;;;16.71;100.00;99640.47;4967024;28;20282;-80
2023/06/13 02:28:07;;;;;;;14.85;3.67;;;;;;;16.67;100.00;99641.47;4980889;28;20236;-79
2023/06/13 02:30:33;;;;;;;15.48;3.85;;;;;;;16.74;100.00;99637.69;4972645;28;20279;-80
2023/06/13 02:33:01;;;;;;;13.82;3.85;;;;;;;16.80;99.20;99620.63;4981560;28;20248;-80
2023/06/13 02:35:29;;;;;;;28.13;6.80;;;;;;;16.94;98.12;99630.00;4972082;28;20231;-79
2023/06/13 02:37:56;;;;;;;15.60;3.92;;;;;;;16.86;100.00;99658.72;4971074;28;20232;-80
2023/06/13 02:40:23;;;;;;;35.97;7.85;;;;;;;16.72;100.00;99658.22;4966359;28;20264;-80
2023/06/13 02:42:52;;;;;;;12.32;3.20;;;;;;;16.55;100.00;99679.13;4974272;28;20225;-80
2023/06/13 02:45:19;;;;;;;24.05;6.20;;;;;;;16.47;100.00;99668.69;4999125;23;20236;-77
2023/06/13 02:47:46;;;;;;;14.38;3.67;;;;;;;16.50;100.00;99689.06;4985693;28;20236;-80
2023/06/13 02:50:13;;;;;;;10.27;2.53;;;;;;;16.52;100.00;99680.09;4966512;28;20269;-79
2023/06/13 02:52:40;;;;;;;10.80;2.85;;;;;;;16.50;100.00;99681.94;4964095;28;20229;-78
2023/06/13 02:55:08;;;;;;;7.78;2.08;;;;;;;16.39;100.00;99694.69;4964097;28;20249;-79
2023/06/13 02:57:38;;;;;;;11.70;2.92;;;;;;;16.33;100.00;99729.53;4957566;28;20236;-78
2023/06/13 03:00:11;;;;;;;10.65;2.63;;;;;;;16.32;100.00;99712.66;4965938;28;20241;-77
2023/06/13 03:02:38;;;;;;;8.63;2.28;;;;;;;16.27;100.00;99700.34;4963391;28;20220;-77
2023/06/13 03:05:09;;;;;;;15.38;4.13;;;;;;;16.33;100.00;99702.84;4963898;28;20233;-78
2023/06/13 03:07:42;;;;;;;8.85;2.28;;;;;;;16.21;100.00;99706.72;4957247;28;20255;-79
2023/06/13 03:10:10;;;;;;;9.40;2.42;;;;;;;16.31;100.00;99715.34;4955222;28;20244;-79
2023/06/13 03:12:37;;;;;;;9.55;2.42;;;;;;;16.34;100.00;99709.94;4958866;28;20690;-79
2023/06/13 03:15:04;;;;;;;8.23;2.15;;;;;;;16.27;100.00;99700.34;4982437;28;20232;-77
2023/06/13 03:17:31;;;;;;;20.05;4.85;;;;;;;16.40;100.00;99720.47;4951575;28;20288;-77
2023/06/13 03:19:57;;;;;;;10.18;2.75;;;;;;;16.37;100.00;99715.19;4959269;28;20720;-79
2023/06/13 03:22:31;;;;;;;23.33;5.60;;;;;;;16.31;100.00;99718.03;4957383;28;20314;-78
2023/06/13 03:25:04;;;;;;;11.65;2.97;;;;;;;16.32;100.00;99722.44;4965980;28;20228;-79
2023/06/13 03:27:33;;;;;;;12.48;3.17;;;;;;;16.25;100.00;99732.41;4955090;28;20240;-77
2023/06/13 03:30:00;;;;;;;11.73;3.03;;;;;;;16.15;100.00;99708.66;4959657;28;20700;-79
2023/06/13 03:32:27;;;;;;;17.88;4.45;;;;;;;16.15;100.00;99714.00;4955944;28;20229;-79
2023/06/13 03:34:54;;;;;;;13.73;3.72;;;;;;;16.19;100.00;99743.22;4964390;28;20261;-78
2023/06/13 03:37:21;;;;;;;14.82;3.90;;;;;;;16.10;100.00;99746.13;4958882;28;20237;-79
2023/06/13 03:39:47;;;;;;;11.70;3.05;;;;;;;16.14;100.00;99746.91;4956114;28;20736;-79
2023/06/13 03:42:14;;;;;;;13.02;3.20;;;;;;;16.07;100.00;99770.19;4958851;28;20228;-77
2023/06/13 03:44:46;;;;;;;13.85;3.50;;;;;;;16.05;100.00;99766.69;4964680;28;20232;-77
2023/06/13 03:47:14;;;;;;;10.70;2.65;;;;;;;15.99;100.00;99758.84;4954309;28;20236;-77
2023/06/13 03:49:42;;;;;;;6.78;1.88;;;;;;;15.97;100.00;99784.66;4966926;28;20245;-76
2023/06/13 03:52:10;;;;;;;10.18;2.67;;;;;;;15.77;100.00;99809.13;4963148;28;20229;-76
2023/06/13 03:54:37;;;;;;;10.20;2.60;;;;;;;15.70;100.00;99809.28;4970663;28;20297;-76
2023/06/13 03:57:05;;;;;;;8.75;2.22;;;;;;;15.56;100.00;99801.50;4962672;28;20245;-77
2023/06/13 03:59:33;;;;;;;10.85;2.72;;;;;;;15.49;100.00;99834.53;4961957;28;20237;-76
2023/06/13 04:02:00;;;;;;;10.13;2.60;;;;;;;15.42;100.00;99836.44;4959004;28;20233;-77
2023/06/13 04:04:26;;;;;;;17.88;4.35;;;;;;;15.45;100.00;99843.50;4956889;28;20600;-76
2023/06/13 04:06:55;;;;;;;11.20;2.75;;;;;;;15.52;100.00;99856.66;4960831;28;20233;-76
2023/06/13 04:09:23;;;;;;;16.38;3.95;;;;;;;15.50;100.00;99874.47;4957916;28;20255;-77
2023/06/13 04:11:49;;;;;;;11.45;2.90;;;;;;;15.53;100.00;99869.09;4960314;28;20225;-76
2023/06/13 04:14:16;;;;;;;16.52;4.00;;;;;;;15.58;100.00;99893.88;4950257;28;20232;-79
2023/06/13 04:16:43;;;;;;;10.68;2.70;;;;;;;15.61;100.00;99903.63;4962700;28;20229;-79
2023/06/13 04:19:14;;;;;;;14.70;3.42;;;;;;;15.60;100.00;99924.09;4962547;28;20244;-77
2023/06/13 04:21:41;;;;;;;6.60;1.70;;;;;;;15.64;100.00;99938.22;4954815;28;20253;-76
2023/06/13 04:24:08;;;;;;;7.60;1.95;;;;;;;15.75;100.00;99954.00;4957110;28;20311;-76
2023/06/13 04:26:36;;;;;;;10.43;2.60;;;;;;;15.80;100.00;99968.13;4953974;28;20232;-76
2023/06/13 04:29:03;;;;;;;9.95;2.50;;;;;;;15.76;100.00;99961.97;4957504;28;20233;-76
2023/06/13 04:31:34;;;;;;;16.33;4.47;;;;;;;15.86;100.00;99976.88;4951931;28;20225;-76
2023/06/13 04:34:03;;;;;;;11.27;2.92;;;;;;;15.81;100.00;99976.09;4972210;28;20261;-79
2023/06/13 04:36:32;;;;;;;21.08;5.43;;;;;;;15.93;100.00;99985.66;4955011;28;20222;-78
2023/06/13 04:39:06;;;;;;;10.95;2.92;;;;;;;15.89;100.00;99983.94;4956387;28;20237;-79
2023/06/13 04:41:34;;;;;;;9.75;2.42;;;;;;;15.97;100.00;100001.56;4961146;28;20265;-79
2023/06/13 04:44:10;;;;;;;10.75;2.72;;;;;;;16.10;100.00;100011.97;4958879;28;20228;-81
2023/06/13 04:46:42;;;;;;;11.52;2.95;;;;;;;16.15;100.00;100018.09;4958636;28;20225;-80
2023/06/13 04:49:09;;;;;;;18.13;4.20;;;;;;;16.22;100.00;100025.06;4962659;28;20249;-81
2023/06/13 04:51:36;;;;;;;12.65;3.17;;;;;;;16.30;100.00;100024.00;4949361;28;20252;-79
2023/06/13 04:54:02;;;;;;;13.93;3.45;;;;;;;16.38;100.00;100025.63;4954670;28;20280;-80
2023/06/13 04:56:29;;;;;;;46.85;7.97;;;;;;;16.43;100.00;100043.31;4953333;28;20229;-79
2023/06/13 04:58:56;;;;;;;12.45;3.03;;;;;;;16.47;100.00;100047.66;4960754;28;20228;-80
2023/06/13 05:01:26;;;;;;;24.95;4.38;;;;;;;16.55;100.00;100051.03;4953101;28;20352;-79
2023/06/13 05:03:55;;;;;;;11.73;3.63;;;;;;;16.63;100.00;100048.22;4957632;28;20229;-78
2023/06/13 05:06:27;;;;;;;44.22;7.95;;;;;;;16.71;100.00;100046.28;4955130;28;20308;-77
2023/06/13 05:08:53;;;;;;;8.30;2.13;;;;;;;16.79;100.00;100038.09;4952496;28;20284;-78
2023/06/13 05:11:20;;;;;;;49.58;9.43;;;;;;;16.85;100.00;100049.53;4945109;28;20282;-77
2023/06/13 05:13:47;;;;;;;11.90;3.45;;;;;;;16.97;100.00;100074.22;4956703;28;20230;-78
2023/06/13 05:16:14;;;;;;;16.42;3.63;;;;;;;17.07;100.00;100071.31;4942965;28;20649;-78
2023/06/13 05:18:41;;;;;;;12.93;3.22;;;;;;;17.19;100.00;100073.69;4959019;28;20233;-75
2023/06/13 05:21:08;;;;;;;9.00;2.33;;;;;;;17.31;100.00;100090.34;4959052;28;20237;-75
2023/06/13 05:23:38;;;;;;;9.63;2.55;;;;;;;17.40;100.00;100066.94;4952422;28;20233;-76
2023/06/13 05:26:05;;;;;;;9.95;2.53;;;;;;;17.48;100.00;100070.31;4961197;28;20224;-76
2023/06/13 05:28:32;;;;;;;20.67;3.85;;;;;;;17.57;100.00;100079.91;4957329;28;20252;-76
2023/06/13 05:31:01;;;;;;;9.80;2.83;;;;;;;17.72;100.00;100066.16;4963134;28;20243;-76
2023/06/13 05:33:28;;;;;;;13.60;3.30;;;;;;;18.02;100.00;100071.63;4958825;28;20269;-76
2023/06/13 05:35:54;;;;;;;9.63;2.35;;;;;;;17.97;100.00;100003.97;4964316;28;20228;-76
2023/06/13 05:38:24;;;;;;;17.23;4.32;;;;;;;18.03;100.00;100015.38;4959313;28;20241;-76
2023/06/13 05:40:51;;;;;;;7.80;2.13;;;;;;;18.09;100.00;100001.84;4962798;28;20244;-76
2023/06/13 05:43:19;;;;;;;13.40;3.33;;;;;;;18.17;100.00;99980.22;4957805;28;20229;-76
2023/06/13 05:45:50;;;;;;;8.00;2.08;;;;;;;18.27;100.00;99991.56;4963271;28;20272;-76
2023/06/13 05:48:17;;;;;;;13.55;3.45;;;;;;;18.38;100.00;100002.81;4962398;28;20225;-76
2023/06/13 05:50:43;;;;;;;8.93;2.30;;;;;;;18.53;100.00;99997.88;4961994;28;20274;-76
2023/06/13 05:53:10;;;;;;;18.02;4.57;;;;;;;18.60;100.00;100003.94;4960451;28;20225;-76
2023/06/13 05:55:37;;;;;;;11.23;2.85;;;;;;;18.66;100.00;99995.75;4969833;28;20267;-76
2023/06/13 05:58:04;;;;;;;10.23;2.55;;;;;;;18.72;100.00;99981.28;4956438;28;20224;-76
2023/06/13 06:00:30;;;;;;;23.33;5.72;;;;;;;18.79;98.93;99973.00;4953370;28;20229;-76
2023/06/13 06:03:01;;;;;;;9.38;2.60;;;;;;;18.94;98.46;99968.94;4960338;28;20308;-76
2023/06/13 06:05:29;;;;;;;18.55;4.80;;;;;;;19.13;97.45;99962.06;4957872;28;20256;-76
2023/06/13 06:07:56;;;;;;;8.60;2.28;;;;;;;19.29;95.76;99948.13;4961476;28;20229;-76
2023/06/13 06:10:23;;;;;;;18.45;4.60;;;;;;;19.40;94.89;99935.22;4957958;28;20229;-76
2023/06/13 06:12:49;;;;;;;8.50;2.30;;;;;;;19.49;91.91;99890.19;4961813;28;20275;-76
2023/06/13 06:15:16;;;;;;;17.50;4.20;;;;;;;19.53;88.31;99841.88;4962936;28;20234;-76
2023/06/13 06:17:43;;;;;;;10.40;2.70;;;;;;;19.83;86.61;99813.88;4967719;28;20233;-76
2023/06/13 06:20:10;;;;;;;9.60;2.60;;;;;;;19.93;80.72;99737.44;4966233;28;20241;-76
2023/06/13 06:22:37;;;;;;;7.50;2.13;;;;;;;19.96;80.84;99718.53;4960038;28;20263;-76
2023/06/13 06:25:05;;;;;;;8.55;2.28;;;;;;;20.14;82.36;99743.75;4970523;28;20236;-77
2023/06/13 06:27:32;;;;;;;11.13;2.95;;;;;;;20.27;76.06;99639.41;4951439;28;21911;-77
2023/06/13 06:29:59;;;;;;;10.48;2.92;;;;;;;20.22;76.09;99618.13;4966705;28;20241;-76
2023/06/13 06:32:25;;;;;;;17.60;5.03;;;;;;;20.09;72.96;99529.22;4961314;28;20623;-76
2023/06/13 06:34:54;;;;;;;9.43;2.53;;;;;;;20.15;73.21;99525.38;4963635;28;20248;-74
2023/06/13 06:37:21;;;;;;;13.05;3.75;;;;;;;20.38;73.01;99545.84;4952396;28;20229;-75
2023/06/13 06:39:47;;;;;;;7.07;1.98;;;;;;;20.48;71.32;99496.16;4957818;28;20240;-76
2023/06/13 06:42:14;;;;;;;8.07;2.33;;;;;;;20.60;68.68;99452.63;4871021;28;20237;-76
2023/06/13 06:44:41;;;;;;;7.50;2.17;;;;;;;20.68;69.95;99463.88;4793986;28;20259;-77
2023/06/13 06:47:11;;;;;;;9.00;2.75;;;;;;;20.76;68.50;99440.19;4881918;28;20228;-76
2023/06/13 06:49:38;;;;;;;10.77;3.05;;;;;;;20.61;65.66;99346.91;4944841;28;20333;-77
2023/06/13 06:52:05;;;;;;;10.57;2.75;;;;;;;20.78;64.94;99340.69;4962864;28;20225;-76
2023/06/13 06:54:33;;;;;;;7.40;2.03;;;;;;;20.91;66.92;99371.41;4961106;28;20244;-77
2023/06/13 06:57:01;;;;;;;10.25;2.75;;;;;;;21.30;68.63;99438.47;4972121;28;20232;-77
2023/06/13 06:59:29;;;;;;;17.27;4.57;;;;;;;21.22;66.10;99380.63;4942017;28;20249;-78
2023/06/13 07:01:56;;;;;;;7.88;2.28;;;;;;;21.14;62.98;99286.03;4843884;28;20277;-78
2023/06/13 07:04:23;;;;;;;9.60;2.80;;;;;;;21.18;62.66;99269.66;4753669;28;20230;-78
2023/06/13 07:06:50;;;;;;;5.25;1.63;;;;;;;21.33;64.03;99286.84;4833052;28;20232;-78
2023/06/13 07:09:17;;;;;;;13.85;3.53;;;;;;;21.31;62.74;99251.09;4841526;28;20269;-78
2023/06/13 07:11:44;;;;;;;9.38;2.70;;;;;;;21.08;61.02;99159.06;4855534;28;20230;-77
2023/06/13 07:14:10;;;;;;;7.80;2.17;;;;;;;21.56;61.89;99237.19;4847349;28;20669;-79
2023/06/13 07:16:37;;;;;;;9.48;2.78;;;;;;;21.48;59.64;99161.44;4760556;28;20258;-78
2023/06/13 07:19:04;;;;;;;13.20;3.83;;;;;;;21.61;60.08;99170.53;4845817;28;20232;-79
2023/06/13 07:21:30;;;;;;;11.85;3.55;;;;;;;21.79;59.24;99166.81;4789393;28;20225;-79
2023/06/13 07:23:57;;;;;;;9.68;2.78;;;;;;;21.40;58.19;99054.28;4859301;28;20236;-79
2023/06/13 07:26:34;;;;;;;9.48;2.78;;;;;;;21.36;57.40;99009.69;4891762;28;20251;-79
2023/06/13 07:29:01;;;;;;;6.25;2.08;;;;;;;21.69;58.68;99090.28;4969481;28;20235;-79
2023/06/13 07:31:27;;;;;;;16.40;4.28;;;;;;;22.01;59.64;99136.84;4960476;28;20239;-79
2023/06/13 07:33:54;;;;;;;9.18;2.60;;;;;;;21.42;57.31;98985.16;4970344;28;20232;-80
2023/06/13 07:36:21;;;;;;;14.45;4.10;;;;;;;21.80;58.56;99054.66;4959383;28;20225;-79
2023/06/13 07:38:51;;;;;;;7.63;2.58;;;;;;;21.96;55.85;99023.19;4963552;28;20232;-79
2023/06/13 07:41:17;;;;;;;14.57;4.28;;;;;;;22.08;55.18;98994.69;4956331;28;20243;-78
2023/06/13 07:43:44;;;;;;;7.05;2.13;;;;;;;21.84;54.82;98930.59;4966398;28;20244;-79
2023/06/13 07:46:11;;;;;;;7.70;2.38;;;;;;;22.02;55.20;98947.44;4953608;28;20239;-79
2023/06/13 07:48:38;;;;;;;6.60;2.10;;;;;;;21.98;54.42;98909.09;4970641;28;20243;-79
2023/06/13 07:51:05;;;;;;;10.45;3.17;;;;;;;22.10;53.67;98890.47;4957420;28;20240;-79
2023/06/13 07:53:32;;;;;;;9.95;2.92;;;;;;;22.15;54.27;98891.09;4962426;28;20260;-80
2023/06/13 07:55:58;;;;;;;7.22;2.30;;;;;;;22.21;53.24;98867.34;4968328;28;20259;-79
2023/06/13 07:58:25;;;;;;;16.88;4.93;;;;;;;22.26;53.90;98869.75;4957347;28;20260;-79
2023/06/13 08:00:52;;;;;;;6.43;2.38;;;;;;;22.33;54.39;98900.69;4971286;28;20233;-80
2023/06/13 08:03:19;;;;;;;15.38;4.68;;;;;;;22.03;52.79;98804.72;4952070;28;20283;-79
2023/06/13 08:05:49;;;;;;;8.70;2.65;;;;;;;22.10;53.85;98817.78;4978435;28;20242;-80
2023/06/13 08:08:16;;;;;;;10.98;3.33;;;;;;;22.52;53.67;98871.63;4959060;28;20236;-79
2023/06/13 08:10:42;;;;;;;7.50;2.30;;;;;;;22.65;53.54;98874.38;4961089;28;20233;-80
2023/06/13 08:13:09;;;;;;;8.13;2.33;;;;;;;22.71;53.46;98876.69;4964266;28;20240;-80
2023/06/13 08:15:36;;;;;;;10.25;2.97;;;;;;;22.56;54.52;98850.75;4951869;28;20241;-79
2023/06/13 08:18:04;;;;;;;7.20;2.10;;;;;;;22.60;54.85;98860.34;4968804;28;20236;-80
2023/06/13 08:20:31;;;;;;;23.08;6.05;;;;;;;22.23;53.82;98760.41;4959681;28;20251;-80
2023/06/13 08:22:59;;;;;;;9.57;2.72;;;;;;;22.62;53.15;98807.22;4964128;28;20228;-80
2023/06/13 08:25:26;;;;;;;15.60;4.20;;;;;;;23.04;53.96;98879.00;4928523;28;20228;-79
2023/06/13 08:27:52;;;;;;;7.95;2.38;;;;;;;22.93;51.98;98811.47;4951844;28;20236;-80
2023/06/13 08:30:19;;;;;;;17.63;4.43;;;;;;;23.02;52.33;98799.19;4960397;28;20229;-79
2023/06/13 08:32:47;;;;;;;8.73;2.72;;;;;;;22.87;52.64;98795.72;4965400;28;20232;-79
2023/06/13 08:35:14;;;;;;;8.68;2.45;;;;;;;22.83;52.06;98753.75;4964513;28;20231;-78
2023/06/13 08:37:42;;;;;;;8.15;2.63;;;;;;;22.95;51.78;98748.41;4974540;28;20221;-80
2023/06/13 08:40:10;;;;;;;7.88;2.40;;;;;;;23.28;51.55;98774.88;4966611;28;20671;-79
2023/06/13 08:42:38;;;;;;;5.13;1.70;;;;;;;23.27;51.97;98786.63;4961978;28;20241;-79
2023/06/13 08:45:06;;;;;;;10.02;2.72;;;;;;;23.45;51.47;98767.47;4963464;28;20247;-79
2023/06/13 08:47:33;;;;;;;9.30;2.83;;;;;;;23.76;50.70;98785.09;4967988;23;20265;-79
2023/06/13 08:50:08;;;;;;;11.05;3.15;;;;;;;23.51;49.85;98715.78;4957031;28;20237;-79
2023/06/13 08:52:40;;;;;;;11.82;3.30;;;;;;;23.77;49.96;98730.13;4920768;28;20263;-80
2023/06/13 08:55:15;;;;;;;8.95;2.60;;;;;;;23.52;48.78;98648.22;4927523;28;20244;-80
2023/06/13 08:58:04;;;;;;;10.43;2.97;;;;;;;23.77;48.27;98641.06;4927956;28;20353;-80
2023/06/13 09:00:35;;;;;;;23.23;5.85;;;;;;;23.60;48.70;98607.22;4927811;28;20288;-80
2023/06/13 09:03:03;;;;;;;9.23;2.75;;;;;;;23.61;47.79;98572.03;4934527;28;20264;-79
2023/06/13 09:05:31;;;;;;;18.63;4.90;;;;;;;23.91;49.67;98662.50;4921434;29;20225;-75
2023/06/13 09:07:58;;;;;;;9.20;2.83;;;;;;;24.39;48.30;98686.88;4922763;29;20241;-79
2023/06/13 09:10:45;;;;;;;10.15;2.90;;;;;;;24.25;47.93;98631.16;4930515;28;20313;-78
2023/06/13 09:13:15;;;;;;;7.75;2.33;;;;;;;24.51;48.83;98683.25;4924244;28;20549;-79
2023/06/13 09:15:44;;;;;;;9.85;2.80;;;;;;;24.59;48.16;98670.00;4937332;28;20237;-79
2023/06/13 09:18:11;;;;;;;10.57;2.88;;;;;;;24.93;47.69;98673.72;4928136;28;20245;-81
2023/06/13 09:20:38;;;;;;;11.02;2.95;;;;;;;24.75;47.61;98621.94;4926140;28;20324;-80
2023/06/13 09:23:05;;;;;;;11.27;3.13;;;;;;;24.98;46.46;98603.94;4942502;28;20230;-81
2023/06/13 09:25:35;;;;;;;17.35;4.50;;;;;;;25.25;45.60;98594.59;4917982;29;20241;-81
2023/06/13 09:28:31;;;;;;;11.00;2.92;;;;;;;25.57;43.61;98554.97;4924350;29;20244;-80
2023/06/13 09:30:58;;;;;;;10.10;2.83;;;;;;;24.96;44.86;98473.38;4923400;28;20246;-81
2023/06/13 09:33:25;;;;;;;23.73;6.30;;;;;;;25.14;44.86;98481.88;4921710;28;20253;-82
2023/06/13 09:35:52;;;;;;;12.57;3.28;;;;;;;25.09;43.97;98433.56;4926823;28;20690;-81
2023/06/13 09:38:23;;;;;;;22.10;5.63;;;;;;;25.09;43.34;98402.94;4924897;28;20234;-80
2023/06/13 09:40:52;;;;;;;13.85;3.78;;;;;;;25.18;44.00;98408.47;4927894;28;20242;-81
2023/06/13 09:43:19;;;;;;;23.70;5.85;;;;;;;25.07;43.18;98334.63;4918198;29;20225;-82
2023/06/13 09:45:48;;;;;;;11.05;3.10;;;;;;;25.29;42.97;98374.25;4925392;29;20248;-80
2023/06/13 09:48:15;;;;;;;13.60;3.67;;;;;;;25.22;42.78;98337.88;4922588;28;20224;-81
2023/06/13 09:50:42;;;;;;;10.50;2.78;;;;;;;25.76;43.18;98424.38;4926772;28;20259;-80
2023/06/13 09:53:09;;;;;;;7.90;2.17;;;;;;;25.55;43.13;98377.47;4938758;28;20237;-81
2023/06/13 09:55:36;;;;;;;8.43;2.30;;;;;;;25.94;42.57;98420.09;4928412;28;20236;-81
2023/06/13 09:58:03;;;;;;;14.75;3.83;;;;;;;25.60;41.87;98312.97;4925944;28;20230;-84
2023/06/13 10:00:33;;;;;;;12.48;3.25;;;;;;;26.32;42.29;98415.94;4927644;29;20253;-82
2023/06/13 10:03:01;;;;;;;15.32;4.10;;;;;;;26.52;42.52;98441.34;4937546;28;20235;-79
2023/06/13 10:05:43;;;;;;;12.70;3.13;;;;;;;26.39;41.18;98344.84;4922926;28;20232;-85
2023/06/13 10:08:10;;;;;;;9.15;2.30;;;;;;;26.68;42.32;98410.03;4926351;28;20342;-82
2023/06/13 10:10:37;;;;;;;11.35;2.78;;;;;;;27.02;41.80;98431.44;4922931;28;20423;-80
2023/06/13 10:13:06;;;;;;;11.45;3.03;;;;;;;26.28;40.78;98227.56;4929003;29;20226;-81
2023/06/13 10:15:37;;;;;;;11.75;3.35;;;;;;;26.34;41.16;98244.16;4922696;28;20301;-81
2023/06/13 10:18:11;;;;;;;11.57;3.03;;;;;;;26.67;41.81;98309.84;4927526;28;20230;-80
2023/06/13 10:20:39;;;;;;;12.98;3.72;;;;;;;26.29;41.48;98219.28;4919967;28;20282;-80
2023/06/13 10:23:10;;;;;;;10.15;2.70;;;;;;;26.35;42.45;98263.97;4932076;29;20320;-81
2023/06/13 10:25:37;;;;;;;10.73;2.67;;;;;;;26.90;43.33;98397.25;4923280;29;20255;-82
2023/06/13 10:28:24;;;;;;;10.32;2.58;;;;;;;27.27;41.23;98371.22;4927254;29;20690;-82
2023/06/13 10:31:11;;;;;;;12.40;3.17;;;;;;;26.92;39.86;98251.50;4911528;28;20229;-81
2023/06/13 10:33:53;;;;;;;15.38;3.90;;;;;;;26.92;40.33;98256.94;4943455;28;20226;-83
2023/06/13 10:36:35;;;;;;;26.88;6.45;;;;;;;26.61;40.31;98189.28;4923518;29;20237;-83
2023/06/13 10:39:26;;;;;;;14.90;3.83;;;;;;;27.93;39.97;98371.41;4931339;28;20316;-80
2023/06/13 10:42:02;;;;;;;15.55;3.83;;;;;;;27.23;38.89;98187.13;4948382;28;20234;-79
2023/06/13 10:44:47;;;;;;;25.50;6.00;;;;;;;27.63;39.18;98243.97;4920146;28;20282;-79
2023/06/13 10:47:18;;;;;;;14.27;3.40;;;;;;;27.50;39.37;98219.81;4932108;28;20232;-79
2023/06/13 10:49:51;;;;;;;15.00;3.75;;;;;;;28.10;39.08;98276.53;4925744;29;20234;-80
2023/06/13 10:52:19;;;;;;;25.95;5.68;;;;;;;28.59;38.67;98324.28;4923443;28;20238;-80
2023/06/13 10:54:53;;;;;;;20.90;4.95;;;;;;;27.85;38.66;98181.13;4924441;28;20244;-81
2023/06/13 10:57:20;;;;;;;71.97;15.77;;;;;;;27.36;37.30;97993.16;4920667;29;20236;-81
2023/06/13 10:59:49;;;;;;;13.38;3.53;;;;;;;28.33;38.82;98237.13;4932828;28;20230;-80
2023/06/13 11:02:17;;;;;;;27.35;6.18;;;;;;;27.93;39.60;98188.53;4923393;28;20321;-81
2023/06/13 11:04:49;;;;;;;10.52;2.60;;;;;;;27.54;38.57;98060.22;4932527;28;20609;-81
2023/06/13 11:07:22;;;;;;;26.13;5.18;;;;;;;27.86;39.03;98149.41;4910069;28;20601;-79
2023/06/13 11:10:08;;;;;;;13.35;3.40;;;;;;;27.87;37.61;98080.50;4939744;28;20244;-80
2023/06/13 11:12:35;;;;;;;12.07;2.97;;;;;;;27.78;37.33;98052.38;4910429;28;20233;-79
2023/06/13 11:15:03;;;;;;;13.20;3.20;;;;;;;27.87;36.97;98031.59;4922588;29;20233;-81
2023/06/13 11:17:30;;;;;;;57.35;10.57;;;;;;;28.67;38.76;98232.78;4919085;28;20225;-80
2023/06/13 11:19:57;;;;;;;17.70;4.32;;;;;;;29.36;38.13;98268.50;4932542;28;20257;-85
2023/06/13 11:22:24;;;;;;;74.28;15.90;;;;;;;29.61;38.40;98284.91;4918685;28;20226;-84
2023/06/13 11:24:53;;;;;;;15.48;3.85;;;;;;;28.51;37.44;98045.00;4932541;28;20225;-80
2023/06/13 11:27:20;;;;;;;59.85;11.63;;;;;;;28.41;37.77;98056.97;4933403;28;20228;-80
2023/06/13 11:29:48;;;;;;;12.38;2.95;;;;;;;28.87;38.15;98159.25;4938847;29;20242;-82
2023/06/13 11:32:15;;;;;;;25.20;5.38;;;;;;;29.19;39.59;98264.78;4924952;28;20248;-81